Meteorológiai információk azoknak akik tudják olvasni.

METAR = LHBP 141000Z 18006KT 150V210 8000 BKN006 BKN060 02/02 Q1006 BECMG SCT007 BKN065

9 órás TAF = TAF TAF LHBP 182000Z 1820/1821 CNL

24 órás TAF = TAF TAF LHBP 140515Z 1406/1506 15007KT 1500 BR BKN005 TEMPO 1406/1408 0600 FG -DZ OVC002 BECMG 1408/1410 17010KT 5000 BR BKN010 BECMG 1410/1412 24008KT 9999 NSW BKN040 TEMPO 1412/1417 24012G22KT SHRA SCT020TCU BKN040 BECMG 1417/1419 VRB03KT CAVOK TEMPO 1502/1506 16013KT SHRA SCT015TCU

ÁLLOMÁS.................... LHBP
ÉSZLELÉS................... Thu Dec 14, 11:00 CET
MOST....................... Thu Dec 14, 11:18 CET
IDŐ........................ 18 perccel ezelőtt
SZÉL....................... D irányból 6 csomó
LÁTÁSTÁVOLSÁG.............. 5 mérföld
FELHŐZET................... erősen felhős
HŐMÉRSÉKLET................ 36°F (2°C)
HŐÉRZET.................... 31°F (-1°C)
HARMATPONT................. 36°F (2°C)
PÁRATARTALOM............... 100%
LÉGNYOMÁS.................. 1006 hPa (29.71 in Hg)

További információ LHBP állomásról

Meteor információ kérése:        állomásról.    

 

www.tothgeza.hu

 

English version
Copyright © 2003-2017 Tóth Géza Minden jog fenntartva.